Archival Weather

Tokyo Intl

Tokyo, Japan (RJTT)

Report from: Saturday, March 18, 2023 4:30 PM JST
Current time: Monday, June 17, 2024 7:53 PM JST

Current weather – Weather history – Daily summaries
Weather forecast

Present weatherLight rain, rain, mist
Temperature9.0°C (48.2°F)
Wind chill5.5°C (41.8°F)
Dew point8.0°C (46.4°F)
Winds 15 kts (7.7 m/s, 17.3 mph) North (10°)
Visibility3.7 mi. (6 km)
Clouds Few clouds 500 ft. (152 m)
Few clouds 500 ft. (152 m)
Ceiling: Broken clouds 800 ft. (244 m)
Broken clouds 1,000 ft. (305 m)
Broken clouds 2,000 ft. (610 m)
Altimeter29.80 in.Hg (1009 mB)
Precip. events Began 6:18 PM
Relative humidity93 %
Density altitude-421 ft. (-128 m)
Remarks Northwest and
Flight conditions Instrument Meteorological Conditions
Raw dataRJTT 180730Z 01015KT 6000 -RA FEW005 BKN010 BKN020 09/08 Q1009 TEMPO 4000 RA BR FEW005 BKN008 RMK 1ST005 5ST010 7SC020 A2980 MOD TURB OBS AT 0720Z 5NM NW OSHIMA BTN FL200 AND FL160 IN DES BY B738
An error has occurred. This application may no longer respond until reloaded. Reload 🗙